F/V Vag A Lamm — FJ5011 — position and weather

sailwx.info

Track history (hours):
 
Tides and Currents Weather Stations Pressure Air Temp Water Temp Dewpoint Dewpoint Depression Visibility Wind Speed Wind Dir Waves Ship Positions

F/V Vag A Lamm

Last reported at 2018-Jan-18 10:16 UTC. Time now 2018-Jan-21 07:11 UTC.
Position N 48°06' W 004°19'.

Length 15 m.

Type: Fishing. MMSI: 228208700.

Date/timePositionNaut miles runAvg speedWind from/ knotsBaromVisibWave heightAir tempDewpointWater temp
2018-Jan-18 10:16N 48°06' W 004°19'0 0.0
2018-Jan-18 10:01N 48°06' W 004°19'  
2018-Jan-12 00:42N 48°06' W 004°19'0 0.0
2018-Jan-12 00:31N 48°06' W 004°19'0 0.1
2018-Jan-12 00:00N 48°06' W 004°19'1 2.2
2018-Jan-11 23:30N 48°07' W 004°18'0 0.2
2018-Jan-11 23:01N 48°07' W 004°18'0 0.4
2018-Jan-11 22:30N 48°07' W 004°18'0 0.1
2018-Jan-11 22:00N 48°07' W 004°18'3 6.1
2018-Jan-11 21:31N 48°09' W 004°21'4 8.3
2018-Jan-11 21:00N 48°11' W 004°27'2 4.3
2018-Jan-11 20:30N 48°13' W 004°28'1 2.7
2018-Jan-11 20:01N 48°12' W 004°27'0 0.1
2018-Jan-11 19:30N 48°12' W 004°27'2 3.2
2018-Jan-11 19:01N 48°11' W 004°25'5 9.5
2018-Jan-11 18:31N 48°07' W 004°21'4 8.5
2018-Jan-11 18:00N 48°10' W 004°25'4 7.4
2018-Jan-11 17:31N 48°12' W 004°29'4 8.1
2018-Jan-11 17:00N 48°09' W 004°33'2 4.9
2018-Jan-11 16:31N 48°10' W 004°37'5 9.2
2018-Jan-11 16:01N 48°08' W 004°30'5 9.1
2018-Jan-11 15:30N 48°07' W 004°24'3 6.4
2018-Jan-11 15:00N 48°06' W 004°19'0 0.0
2018-Jan-10 22:20N 48°06' W 004°19'0 0.0
2018-Jan-10 22:01N 48°06' W 004°19'0 0.0
2018-Jan-10 21:31N 48°06' W 004°19'2 3.2
2018-Jan-10 21:01N 48°07' W 004°19'2 3.1
2018-Jan-10 20:31N 48°07' W 004°21'0 0.5
2018-Jan-10 20:01N 48°07' W 004°21'0 0.3
2018-Jan-10 19:31N 48°07' W 004°21'0 0.4
2018-Jan-10 19:01N 48°07' W 004°21'0 0.8
2018-Jan-10 18:31N 48°07' W 004°22'1 2.6
2018-Jan-10 18:00N 48°07' W 004°20'1 2.0
2018-Jan-10 17:31N 48°06' W 004°19'0 0.0
2018-Jan-10 17:01N 48°06' W 004°19'0 0.0
2018-Jan-10 16:30N 48°06' W 004°19'2 3.2
2018-Jan-10 16:00N 48°07' W 004°20'0 0.5
2018-Jan-10 15:30N 48°07' W 004°20'0 0.9
2018-Jan-10 15:01N 48°07' W 004°20'1 2.3
2018-Jan-10 14:30N 48°06' W 004°19'0 0.0
2018-Jan-09 21:16N 48°06' W 004°19'0 0.1
2018-Jan-09 21:00N 48°06' W 004°19'0 0.0
2018-Jan-09 20:30N 48°06' W 004°19'2 3.1
2018-Jan-09 20:00N 48°07' W 004°20'4 8.7
2018-Jan-09 19:31N 48°09' W 004°25'4 7.1
2018-Jan-09 19:00N 48°09' W 004°20'2 3.6
2018-Jan-09 18:30N 48°08' W 004°19'0 0.3
2018-Jan-09 18:01N 48°08' W 004°19'1 1.7
2018-Jan-09 17:30N 48°07' W 004°19'1 1.3
2018-Jan-09 17:00N 48°07' W 004°20'1 1.6
2018-Jan-09 16:30N 48°07' W 004°19'0 0.7
2018-Jan-09 16:00N 48°07' W 004°20'0 0.5
2018-Jan-09 15:30N 48°07' W 004°20'1 1.2
2018-Jan-09 15:01N 48°07' W 004°21'1 2.8
2018-Jan-09 14:31N 48°06' W 004°19'0 0.6
2018-Jan-09 14:00N 48°06' W 004°19'0 0.0
2018-Jan-09 13:30N 48°06' W 004°19'0 0.0
2018-Jan-09 10:37N 48°06' W 004°20'0 0.0
2018-Jan-08 20:03N 48°06' W 004°20'0 0.0
2018-Jan-08 20:00N 48°06' W 004°20'0 0.2
2018-Jan-08 19:30N 48°06' W 004°19'0 0.0
2018-Jan-08 19:00N 48°06' W 004°19'2 3.9
2018-Jan-08 18:30N 48°07' W 004°22'5 9.6
2018-Jan-08 18:00N 48°08' W 004°29'2 3.5
2018-Jan-08 17:30N 48°08' W 004°31'5 9.4
2018-Jan-08 17:01N 48°07' W 004°24'4 7.4
2018-Jan-08 16:30N 48°07' W 004°19'0 0.0
2018-Jan-08 16:00N 48°07' W 004°19'0 0.8
2018-Jan-08 15:30N 48°07' W 004°20'1 1.6
2018-Jan-08 15:01N 48°06' W 004°19'  
Track history (hours):
 
Tides and Currents Weather Stations Pressure Air Temp Water Temp Dewpoint Dewpoint Depression Visibility Wind Speed Wind Dir Waves Ship Positions

F/V Vag A Lamm

Last reported at 2018-Jan-18 10:16 UTC. Time now 2018-Jan-21 07:11 UTC.
Position N 48°06' W 004°19'.

Length 15 m.

Type: Fishing. MMSI: 228208700.

Date/timePositionNaut miles runAvg speedWind from/ knotsBaromVisibWave heightAir tempDewpointWater temp
2018-Jan-18 10:16N 48°06' W 004°19'0 0.0
2018-Jan-18 10:01N 48°06' W 004°19'  
2018-Jan-12 00:42N 48°06' W 004°19'0 0.0
2018-Jan-12 00:31N 48°06' W 004°19'0 0.1
2018-Jan-12 00:00N 48°06' W 004°19'1 2.2
2018-Jan-11 23:30N 48°07' W 004°18'0 0.2
2018-Jan-11 23:01N 48°07' W 004°18'0 0.4
2018-Jan-11 22:30N 48°07' W 004°18'0 0.1
2018-Jan-11 22:00N 48°07' W 004°18'3 6.1
2018-Jan-11 21:31N 48°09' W 004°21'4 8.3
2018-Jan-11 21:00N 48°11' W 004°27'2 4.3
2018-Jan-11 20:30N 48°13' W 004°28'1 2.7
2018-Jan-11 20:01N 48°12' W 004°27'0 0.1
2018-Jan-11 19:30N 48°12' W 004°27'2 3.2
2018-Jan-11 19:01N 48°11' W 004°25'5 9.5
2018-Jan-11 18:31N 48°07' W 004°21'4 8.5
2018-Jan-11 18:00N 48°10' W 004°25'4 7.4
2018-Jan-11 17:31N 48°12' W 004°29'4 8.1
2018-Jan-11 17:00N 48°09' W 004°33'2 4.9
2018-Jan-11 16:31N 48°10' W 004°37'5 9.2
2018-Jan-11 16:01N 48°08' W 004°30'5 9.1
2018-Jan-11 15:30N 48°07' W 004°24'3 6.4
2018-Jan-11 15:00N 48°06' W 004°19'0 0.0
2018-Jan-10 22:20N 48°06' W 004°19'0 0.0
2018-Jan-10 22:01N 48°06' W 004°19'0 0.0
2018-Jan-10 21:31N 48°06' W 004°19'2 3.2
2018-Jan-10 21:01N 48°07' W 004°19'2 3.1
2018-Jan-10 20:31N 48°07' W 004°21'0 0.5
2018-Jan-10 20:01N 48°07' W 004°21'0 0.3
2018-Jan-10 19:31N 48°07' W 004°21'0 0.4
2018-Jan-10 19:01N 48°07' W 004°21'0 0.8
2018-Jan-10 18:31N 48°07' W 004°22'1 2.6
2018-Jan-10 18:00N 48°07' W 004°20'1 2.0
2018-Jan-10 17:31N 48°06' W 004°19'0 0.0
2018-Jan-10 17:01N 48°06' W 004°19'0 0.0
2018-Jan-10 16:30N 48°06' W 004°19'2 3.2
2018-Jan-10 16:00N 48°07' W 004°20'0 0.5
2018-Jan-10 15:30N 48°07' W 004°20'0 0.9
2018-Jan-10 15:01N 48°07' W 004°20'1 2.3
2018-Jan-10 14:30N 48°06' W 004°19'0 0.0
2018-Jan-09 21:16N 48°06' W 004°19'0 0.1
2018-Jan-09 21:00N 48°06' W 004°19'0 0.0
2018-Jan-09 20:30N 48°06' W 004°19'2 3.1
2018-Jan-09 20:00N 48°07' W 004°20'4 8.7
2018-Jan-09 19:31N 48°09' W 004°25'4 7.1
2018-Jan-09 19:00N 48°09' W 004°20'2 3.6
2018-Jan-09 18:30N 48°08' W 004°19'0 0.3
2018-Jan-09 18:01N 48°08' W 004°19'1 1.7
2018-Jan-09 17:30N 48°07' W 004°19'1 1.3
2018-Jan-09 17:00N 48°07' W 004°20'1 1.6
2018-Jan-09 16:30N 48°07' W 004°19'0 0.7
2018-Jan-09 16:00N 48°07' W 004°20'0 0.5
2018-Jan-09 15:30N 48°07' W 004°20'1 1.2
2018-Jan-09 15:01N 48°07' W 004°21'1 2.8
2018-Jan-09 14:31N 48°06' W 004°19'0 0.6
2018-Jan-09 14:00N 48°06' W 004°19'0 0.0
2018-Jan-09 13:30N 48°06' W 004°19'0 0.0
2018-Jan-09 10:37N 48°06' W 004°20'0 0.0
2018-Jan-08 20:03N 48°06' W 004°20'0 0.0
2018-Jan-08 20:00N 48°06' W 004°20'0 0.2
2018-Jan-08 19:30N 48°06' W 004°19'0 0.0
2018-Jan-08 19:00N 48°06' W 004°19'2 3.9
2018-Jan-08 18:30N 48°07' W 004°22'5 9.6
2018-Jan-08 18:00N 48°08' W 004°29'2 3.5
2018-Jan-08 17:30N 48°08' W 004°31'5 9.4
2018-Jan-08 17:01N 48°07' W 004°24'4 7.4
2018-Jan-08 16:30N 48°07' W 004°19'0 0.0
2018-Jan-08 16:00N 48°07' W 004°19'0 0.8
2018-Jan-08 15:30N 48°07' W 004°20'1 1.6
2018-Jan-08 15:01N 48°06' W 004°19'  

Dump ship's entire track history